• Join FlightAware (Why Join?)
  • Login
  • US Flag 
02:46AM EDT


 

Airport Tracker/Info


-or-


 

Live Flight TrackerFlight Track Log ✈ SWA1711 ✈ 21-Apr-2012 ✈ KDEN - KFLL

Flight Track Log - Related Links

Times and Time Zones

All times are in EDT time to prevent confusion due to time zone crossing. See the SWA1711 flight status page for this flight to view local times or setup timezone preferences in your user account.

Time Position Orientation Groundspeed Altitude Reporting Facility
EDT Latitude Longitude Course Direction KTS MPH feet Rate Location/Type
01:41PM 39.8337 -104.6612 83° East  Level FlightAware Approximate
01:42PM 39.8026 -104.5132 26° Northeast  Level FlightAware Approximate
01:43PM 39.7714 -104.3652 311° West  Level FlightAware Approximate
01:44PM 39.8500 -104.4833 101° East 284 327 9,300  Level Denver TRACON
01:45PM 39.8333 -104.3667 103° East 346 398 11,100 2,340 Climbing Denver TRACON
01:46PM 39.7981 -104.1678 111° Southeast 373 429 15,400 2,760 Climbing Denver Center
01:47PM 39.7575 -104.0286 111° Southeast 393 452 18,000 2,280 Climbing Denver Center
01:48PM 39.7194 -103.9031 111° Southeast 405 466 20,000 2,100 Climbing Denver Center
01:49PM 39.6764 -103.7564 111° Southeast 423 487 22,300 2,220 Climbing Denver Center
01:50PM 39.6311 -103.6072 111° Southeast 436 502 24,500 1,980 Climbing Denver Center
01:51PM 39.5853 -103.4500 112° Southeast 451 519 26,300 1,740 Climbing Denver Center
01:52PM 39.5350 -103.2908 112° Southeast 468 539 28,000 1,620 Climbing Denver Center
01:53PM 39.4822 -103.1183 110° East 468 539 29,600 1,440 Climbing Denver Center
01:54PM 39.4356 -102.9539 112° Southeast 474 545 30,900 1,500 Climbing Denver Center
01:55PM 39.3825 -102.7872 112° Southeast 486 559 32,600 1,380 Climbing Denver Center
01:56PM 39.3358 -102.6394 113° Southeast 491 565 33,700 1,260 Climbing Denver Center
01:57PM 39.2775 -102.4600 113° Southeast 491 565 35,200 1,260 Climbing Denver Center
01:58PM 39.2236 -102.2944 111° Southeast 491 565 36,300 900 Climbing Denver Center
01:59PM 39.1783 -102.1444 112° Southeast 496 571 37,000 300 Climbing Denver Center
02:00PM 39.1264 -101.9817 112° Southeast 491 565 37,000  Level Denver Center
02:01PM 39.0692 -101.8006 111° Southeast 491 565 37,000  Level Denver Center
02:02PM 39.0183 -101.6331 114° Southeast 491 565 37,000  Level Denver Center
02:03PM 38.9681 -101.4869 112° Southeast 491 565 37,000  Level Denver Center
02:04PM 38.9150 -101.3225 113° Southeast 491 565 37,000  Level Denver Center
02:05PM 38.8569 -101.1481 113° Southeast 491 565 37,000  Level Denver Center
02:07PM 38.7622 -100.8567 114° Southeast 487 560 37,000  Level Kansas City Center
02:08PM 38.7081 -100.6978 113° Southeast 487 560 37,000  Level Kansas City Center
02:09PM 38.6592 -100.5500 114° Southeast 492 566 37,000  Level Kansas City Center
02:10PM 38.6044 -100.3914 113° Southeast 492 566 37,000  Level Kansas City Center
02:11PM 38.5444 -100.2139 114° Southeast 492 566 37,000  Level Kansas City Center
02:12PM 38.4875 -100.0503 113° Southeast 492 566 37,000  Level Kansas City Center
02:13PM 38.4378 -99.9008 114° Southeast 497 572 37,000  Level Kansas City Center
02:14PM 38.3825 -99.7431 114° Southeast 497 572 37,000  Level Kansas City Center
02:15PM 38.3192 -99.5611 114° Southeast 497 572 37,000  Level Kansas City Center
02:16PM 38.2653 -99.4094 113° Southeast 492 566 37,000  Level Kansas City Center
02:17PM 38.2114 -99.2447 115° Southeast 497 572 37,000  Level Kansas City Center
02:18PM 38.1508 -99.0822 114° Southeast 497 572 37,000  Level Kansas City Center
02:19PM 38.0944 -98.9231 115° Southeast 497 572 37,000  Level Kansas City Center
02:20PM 38.0356 -98.7642 114° Southeast 497 572 37,000  Level Kansas City Center
02:21PM 37.9786 -98.6000 115° Southeast 497 572 37,000  Level Kansas City Center
02:22PM 37.9192 -98.4417 114° Southeast 497 572 37,000  Level Kansas City Center
02:23PM 37.8619 -98.2806 114° Southeast 497 572 37,000  Level Kansas City Center
02:24PM 37.8081 -98.1308 116° Southeast 504 580 37,000  Level Kansas City Center
02:25PM 37.7422 -97.9569 115° Southeast 504 580 37,000  Level Kansas City Center
02:26PM 37.6900 -97.8128 116° Southeast 505 581 37,000  Level Kansas City Center
02:27PM 37.6219 -97.6367 115° Southeast 505 581 37,000  Level Kansas City Center
02:28PM 37.5614 -97.4717 115° Southeast 505 581 37,000  Level Kansas City Center
02:29PM 37.5025 -97.3150 115° Southeast 505 581 37,000  Level Kansas City Center
02:30PM 37.4436 -97.1533 115° Southeast 505 581 37,000  Level Kansas City Center
02:31PM 37.3844 -96.9969 116° Southeast 505 581 37,000  Level Kansas City Center
02:32PM 37.3231 -96.8356 117° Southeast 505 581 37,000  Level Kansas City Center
02:33PM 37.2614 -96.6825 115° Southeast 500 575 37,000  Level Kansas City Center
02:34PM 37.2036 -96.5242 114° Southeast 495 570 37,000  Level Kansas City Center
02:35PM 37.1539 -96.3822 116° Southeast 495 570 37,000  Level Kansas City Center
02:36PM 37.0936 -96.2244 116° Southeast 495 570 37,000  Level Kansas City Center
02:37PM 37.0331 -96.0697 117° Southeast 495 570 37,000  Level Kansas City Center
02:38PM 36.9703 -95.9125 115° Southeast 495 570 37,000  Level Kansas City Center
02:39PM 36.9094 -95.7528 116° Southeast 495 570 37,000  Level Kansas City Center
02:40PM 36.8486 -95.5989 116° Southeast 495 570 37,000  Level Kansas City Center
02:41PM 36.7811 -95.4292 117° Southeast 495 570 37,000  Level Kansas City Center
02:43PM 36.6269 -95.0522 117° Southeast 504 580 37,000  Level Memphis Center
02:44PM 36.5636 -94.8986 118° Southeast 504 580 37,000  Level Memphis Center
02:45PM 36.5003 -94.7481 116° Southeast 504 580 37,000  Level Memphis Center
02:46PM 36.4389 -94.5950 118° Southeast 504 580 37,000  Level Memphis Center
02:47PM 36.3753 -94.4447 116° Southeast 499 574 37,000  Level Memphis Center
02:48PM 36.3156 -94.2925 118° Southeast 499 574 37,000  Level Memphis Center
02:49PM 36.2511 -94.1453 113° Southeast 494 568 37,000  Level Memphis Center
02:50PM 36.1975 -93.9886 110° East 489 563 37,000  Level Memphis Center
02:51PM 36.1519 -93.8322 111° Southeast 477 549 37,000  Level Memphis Center
02:52PM 36.1039 -93.6786 112° Southeast 477 549 37,000  Level Memphis Center
02:53PM 36.0539 -93.5225 112° Southeast 477 549 37,000  Level Memphis Center
02:54PM 36.0033 -93.3717 111° Southeast 477 549 37,000  Level Memphis Center
02:55PM 35.9550 -93.2161 112° Southeast 482 555 37,000  Level Memphis Center
02:56PM 35.9061 -93.0633 113° Southeast 482 555 37,000  Level Memphis Center
02:57PM 35.8553 -92.9131 111° Southeast 482 555 37,000  Level Memphis Center
02:58PM 35.8081 -92.7631 113° Southeast 477 549 37,000  Level Memphis Center
02:59PM 35.7567 -92.6158 112° Southeast 477 549 37,000  Level Memphis Center
03:00PM 35.7072 -92.4661 112° Southeast 477 549 37,000  Level Memphis Center
03:01PM 35.6633 -92.3322 114° Southeast 472 543 37,000  Level Memphis Center
03:02PM 35.6114 -92.1856 113° Southeast 472 543 37,000 -180 Level Memphis Center
03:03PM 35.5594 -92.0364 112° Southeast 472 543 36,700 -720 Descending Memphis Center
03:04PM 35.5111 -91.8900 114° Southeast 467 537 35,600 -1,560 Descending Memphis Center
03:05PM 35.4567 -91.7386 112° Southeast 467 537 33,600 -1,980 Descending Memphis Center
03:06PM 35.4039 -91.5822 113° Southeast 480 552 31,700 -1,320 Descending Memphis Center
03:07PM 35.3511 -91.4289 112° Southeast 485 558 31,000 -360 Descending Memphis Center
03:08PM 35.3003 -91.2756 114° Southeast 485 558 31,000  Level Memphis Center
03:09PM 35.2469 -91.1300 112° Southeast 478 550 31,000  Level Memphis Center
03:10PM 35.1917 -90.9617 113° Southeast 472 543 31,000  Level Memphis Center
03:11PM 35.1400 -90.8142 114° Southeast 480 552 31,000 -300 Level Memphis Center
03:12PM 35.0864 -90.6642 113° Southeast 480 552 30,400 -840 Descending Memphis Center
03:13PM 35.0344 -90.5144 113° Southeast 479 551 29,400 -1,020 Descending Memphis Center
03:14PM 34.9803 -90.3622 115° Southeast 485 558 28,400 -1,020 Descending Memphis Center
03:15PM 34.9258 -90.2178 113° Southeast 479 551 27,400 -720 Descending Memphis Center
03:16PM 34.8736 -90.0711 115° Southeast 479 551 27,000 -240 Descending Memphis Center
03:17PM 34.8208 -89.9347 114° Southeast 463 533 27,000  Level Memphis Center
03:18PM 34.7639 -89.7808 113° Southeast 468 539 27,000  Level Memphis Center
03:19PM 34.7131 -89.6319 114° Southeast 475 547 27,000 -540 Level Memphis Center
03:20PM 34.6578 -89.4836 114° Southeast 475 547 26,000 -1,020 Descending Memphis Center
03:21PM 34.6047 -89.3378 114° Southeast 475 547 25,000 -540 Descending Memphis Center
03:22PM 34.5511 -89.1922 114° Southeast 475 547 25,000  Level Memphis Center
03:23PM 34.4975 -89.0492 119° Southeast 475 547 25,000  Level Memphis Center
03:24PM 34.4314 -88.9067 126° Southeast 482 555 25,000  Level Memphis Center
03:25PM 34.3547 -88.7797 127° Southeast 476 548 25,000  Level Memphis Center
03:26PM 34.2736 -88.6506 127° Southeast 476 548 25,000  Level Memphis Center
03:27PM 34.1925 -88.5192 126° Southeast 481 554 25,000  Level Memphis Center
03:28PM 34.1131 -88.3878 126° Southeast 481 554 25,000  Level Memphis Center
03:29PM 34.0358 -88.2592 126° Southeast 481 554 25,000  Level Memphis Center
03:30PM 33.9628 -88.1383 126° Southeast 481 554 25,000  Level Memphis Center
03:31PM 33.8769 -87.9978 127° Southeast 486 559 25,000  Level Memphis Center
03:32PM 33.7992 -87.8725 127° Southeast 480 552 25,000  Level Memphis Center
03:34PM 33.6681 -87.6606 127° Southeast 474 545 25,000  Level Atlanta Center
03:35PM 33.5922 -87.5400 127° Southeast 468 539 25,000  Level Atlanta Center
03:36PM 33.5161 -87.4175 126° Southeast 462 532 25,000  Level Atlanta Center
03:37PM 33.4403 -87.2925 127° Southeast 462 532 25,000  Level Atlanta Center
03:38PM 33.3642 -87.1728 127° Southeast 467 537 25,000  Level Atlanta Center
03:39PM 33.2897 -87.0533 127° Southeast 461 531 25,000  Level Atlanta Center
03:40PM 33.2214 -86.9442 127° Southeast 461 531 25,000  Level Atlanta Center
03:41PM 33.1431 -86.8200 150° Southeast 461 531 25,000  Level Atlanta Center
03:42PM 33.0381 -86.7472 179° South 441 507 25,000  Level Atlanta Center
03:43PM 32.9131 -86.7458 179° South 428 493 25,000  Level Atlanta Center
03:44PM 32.7897 -86.7444 177° South 441 507 25,000  Level Atlanta Center
03:45PM 32.6647 -86.7358 179° South 447 514 25,000  Level Atlanta Center
03:46PM 32.5417 -86.7344 179° South 455 524 25,000  Level Atlanta Center
03:47PM 32.4144 -86.7306 179° South 460 529 25,000  Level Atlanta Center
03:48PM 32.2914 -86.7269 178° South 454 522 25,000  Level Atlanta Center
03:50PM 32.0503 -86.7186 179° South 432 497 25,000  Level Jacksonville Center
03:51PM 31.9356 -86.7164 179° South 418 481 25,000  Level Jacksonville Center
03:52PM 31.8228 -86.7142 178° South 412 474 25,000  Level Jacksonville Center
03:53PM 31.7083 -86.7094 179° South 412 474 25,000  Level Jacksonville Center
03:54PM 31.5894 -86.7069 178° South 420 483 25,000  Level Jacksonville Center
03:55PM 31.4872 -86.7028 179° South 420 483 25,000  Level Jacksonville Center
03:56PM 31.3703 -86.7003 179° South 420 483 25,000 840 Level Jacksonville Center
03:57PM 31.2578 -86.6983 180° South 414 476 26,800 960 Climbing Jacksonville Center
03:58PM 31.1450 -86.6986 183° South 414 476 27,000 60 Climbing Jacksonville Center
03:59PM 31.0425 -86.7042 174° South 414 476 27,000 180 Level Jacksonville Center
04:00PM 30.9261 -86.6897 179° South 401 461 27,400 960 Climbing Jacksonville Center
04:01PM 30.8133 -86.6875 173° South 402 463 29,000 840 Climbing Jacksonville Center
04:02PM 30.6886 -86.6706 143° Southeast 408 470 29,100 960 Climbing Jacksonville Center
04:03PM 30.5989 -86.5922 138° Southeast 388 447 31,000 900 Climbing Jacksonville Center
04:04PM 30.5158 -86.5044 140° Southeast 388 447 31,000  Level Jacksonville Center
04:05PM 30.4306 -86.4219 135° Southeast 398 458 31,000  Level Jacksonville Center
04:06PM 30.3497 -86.3297 138° Southeast 404 465 31,000  Level Jacksonville Center
04:07PM 30.2664 -86.2428 136° Southeast 405 466 31,000  Level Jacksonville Center
04:08PM 30.1872 -86.1558 133° Southeast 405 466 31,000  Level Jacksonville Center
04:09PM 30.1103 -86.0594 131° Southeast 405 466 31,000  Level Jacksonville Center
04:10PM 30.0375 -85.9611 131° Southeast 400 460 31,000  Level Jacksonville Center
04:11PM 29.9647 -85.8656 132° Southeast 400 460 31,000  Level Jacksonville Center
04:12PM 29.8897 -85.7697 131° Southeast 400 460 31,000  Level Jacksonville Center
04:13PM 29.8144 -85.6717 131° Southeast 400 460 31,000  Level Jacksonville Center
04:14PM 29.7433 -85.5789 132° Southeast 394 453 31,000  Level Jacksonville Center
04:15PM 29.6683 -85.4836 131° Southeast 394 453 31,000  Level Jacksonville Center
04:16PM 29.6011 -85.3958 132° Southeast 399 459 31,000  Level Jacksonville Center
04:17PM 29.5297 -85.3033 132° Southeast 394 453 31,000  Level Jacksonville Center
04:18PM 29.4542 -85.2083 132° Southeast 394 453 31,000  Level Jacksonville Center
04:19PM 29.3808 -85.1136 131° Southeast 394 453 31,000  Level Jacksonville Center
04:20PM 29.3072 -85.0167 133° Southeast 394 453 31,000  Level Jacksonville Center
04:21PM 29.2317 -84.9247 130° Southeast 394 453 31,000  Level Jacksonville Center
04:22PM 29.1581 -84.8233 133° Southeast 399 459 31,000  Level Jacksonville Center
04:23PM 29.0800 -84.7292 131° Southeast 399 459 31,000  Level Jacksonville Center
04:24PM 29.0042 -84.6306 132° Southeast 399 459 31,000  Level Jacksonville Center
04:25PM 28.9283 -84.5342 135° Southeast 399 459 31,000  Level Jacksonville Center
04:27PM 28.7522 -84.3306 140° Southeast 411 473 31,000  Level Miami Center
04:28PM 28.6647 -84.2467 138° Southeast 416 479 31,000  Level Miami Center
04:29PM 28.5797 -84.1608 138° Southeast 416 479 31,000  Level Miami Center
04:30PM 28.4944 -84.0750 137° Southeast 416 479 31,000 -360 Level Miami Center
04:31PM 28.4114 -83.9872 138° Southeast 416 479 30,300 -1,200 Descending Miami Center
04:32PM 28.3281 -83.9017 139° Southeast 416 479 28,600 -1,620 Descending Miami Center
04:33PM 28.2406 -83.8139 136° Southeast 416 479 27,100 -1,140 Descending Miami Center
04:34PM 28.1594 -83.7242 140° Southeast 416 479 26,400 -1,080 Descending Miami Center
04:35PM 28.0717 -83.6414 146° Southeast 410 472 25,000 -1,200 Descending Miami Center
04:36PM 27.9869 -83.5775 146° Southeast 399 459 24,100 -1,020 Descending Miami Center
04:37PM 27.8983 -83.5089 146° Southeast 385 443 23,000 -840 Descending Miami Center
04:38PM 27.8139 -83.4453 149° Southeast 380 437 22,500 -1,020 Descending Miami Center
04:39PM 27.7228 -83.3839 150° Southeast 380 437 21,000 -780 Descending Miami Center
04:40PM 27.6378 -83.3275 147° Southeast 380 437 21,000  Level Miami Center
04:41PM 27.5550 -83.2667 144° Southeast 375 432 21,000  Level Miami Center
04:42PM 27.4703 -83.1964 134° Southeast 375 432 21,000  Level Miami Center
04:43PM 27.3969 -83.1106 124° Southeast 380 437 21,000  Level Miami Center
04:44PM 27.3386 -83.0117 125° Southeast 380 437 21,000  Level Miami Center
04:45PM 27.2781 -82.9128 125° Southeast 380 437 21,000  Level Miami Center
04:46PM 27.2156 -82.8114 125° Southeast 391 450 21,000  Level Miami Center
04:47PM 27.1528 -82.7103 125° Southeast 391 450 21,000  Level Miami Center
04:48PM 27.0922 -82.6114 124° Southeast 391 450 21,000  Level Miami Center
04:49PM 27.0256 -82.5011 125° Southeast 391 450 21,000  Level Miami Center
04:50PM 26.9667 -82.4075 114° Southeast 397 457 21,000  Level Miami Center
04:51PM 26.9208 -82.2933 94° East 403 464 21,000  Level Miami Center
04:52PM 26.9133 -82.1603 93° East 403 464 21,000  Level Miami Center
04:53PM 26.9075 -82.0322 91° East 403 464 21,000  Level Miami Center
04:54PM 26.9061 -81.8947 96° East 422 486 21,000  Level Miami Center
04:55PM 26.8939 -81.7639 126° Southeast 422 486 21,000  Level Miami Center
04:56PM 26.8222 -81.6539 131° Southeast 389 448 21,000 -300 Level Miami Center
04:57PM 26.7500 -81.5625 134° Southeast 389 448 20,500 -780 Descending Miami Center
04:58PM 26.6858 -81.4878 131° Southeast 377 434 19,500 -960 Descending Miami Center
04:59PM 26.6156 -81.3967 132° Southeast 382 440 18,600 -1,680 Descending Miami Center
05:00PM 26.5392 -81.3011 116° Southeast 382 440 16,200 -1,980 Descending Miami Center
05:01PM 26.5019 -81.2161 112° Southeast 382 440 14,700 -1,800 Descending Miami Center
05:02PM 26.4594 -81.0986 111° Southeast 377 434 12,600 -1,860 Descending Miami Center
05:03PM 26.4208 -80.9881 107° East 364 419 11,000 -1,320 Descending Miami Center
05:04PM 26.3944 -80.8944 112° Southeast 330 380 10,000 -1,260 Descending Miami Center
05:05PM 26.3653 -80.8122 121° Southeast 295 339 8,500 -1,500 Descending Miami Center
05:06PM 26.3256 -80.7392 130° Southeast 282 325 7,000 -1,140 Descending Miami Center
05:07PM 26.2792 -80.6775 140° Southeast 258 297 6,300 -600 Descending Miami Center
05:08PM 26.2361 -80.6367 146° Southeast 244 281 5,900 -360 Descending Miami Center
05:09PM 26.1972 -80.6078 151° Southeast 228 262 5,800 -600 Descending Miami Center
05:09PM 26.1583 -80.5833 117° Southeast 226 260 5,100 -1,200 Descending Miami Center
05:10PM 26.1425 -80.5481 114° Southeast 223 257 4,200 -840 Descending Miami Center
05:11PM 26.1150 -80.4803 112° Southeast 212 244 3,700 -660 Descending Miami Center
05:12PM 26.0953 -80.4264 119° Southeast 201 231 2,900 -480 Descending Miami Center
05:13PM 26.0814 -80.3983 98° East 183 211 3,000  Climbing Miami Center
05:14PM 26.0744 -80.3425 91° East 180 207 2,900 -540 Descending Miami Center
05:15PM 26.0736 -80.2800 85° East 181 208 1,900 -900 Descending Miami Center
05:16PM 26.0769 -80.2361 95° East 184 212 1,200 -840 Descending Miami Center
05:17PM 26.0736 -80.1922 95° East 146 168 400 -840 Descending Miami Center